Time;durP1;ratioP1;P1;durP2;ratioP2;P2;SDS_P1;SDS_P2;PMS_P1;PMS_P2;Temp;Humidity;BMP_temperature;BMP_pressure;BME280_temperature;BME280_humidity;BME280_pressure;Samples;Min_cycle;Max_cycle;Signal;HPM_P1;HPM_P2
2022/11/20 00:01:14;;;;;;;26.02;14.05;;;-1.50;99.90;;;;;;5026422;28;20120;-70
2022/11/20 00:03:40;;;;;;;25.60;13.40;;;-1.60;99.90;;;;;;5009480;28;20403;-69
2022/11/20 00:06:08;;;;;;;29.63;14.10;;;-1.50;99.90;;;;;;5008453;28;20046;-69
2022/11/20 00:08:33;;;;;;;25.07;13.37;;;-1.60;99.90;;;;;;5012275;28;20046;-68
2022/11/20 00:11:09;;;;;;;23.92;14.63;;;-1.70;99.90;;;;;;5009584;28;20096;-70
2022/11/20 00:13:35;;;;;;;27.88;14.85;;;-1.50;99.90;;;;;;5009552;28;20060;-67
2022/11/20 00:16:04;;;;;;;23.45;14.18;;;-1.60;99.90;;;;;;5008938;28;20375;-69
2022/11/20 00:18:30;;;;;;;25.38;14.18;;;-1.50;99.90;;;;;;5008604;28;20042;-69
2022/11/20 00:21:06;;;;;;;25.05;13.98;;;-1.50;99.90;;;;;;4992502;28;20862;-69
2022/11/20 00:23:31;;;;;;;23.45;13.60;;;-1.50;99.90;;;;;;5009010;28;20440;-69
2022/11/20 00:26:05;;;;;;;22.52;12.90;;;-1.60;99.90;;;;;;4992828;28;20128;-69
2022/11/20 00:28:31;;;;;;;23.75;13.38;;;-1.50;99.90;;;;;;4990824;28;20140;-69
2022/11/20 00:31:10;;;;;;;26.90;13.40;;;-1.40;99.90;;;;;;5009516;28;20065;-69
2022/11/20 00:33:36;;;;;;;25.38;13.80;;;-1.50;99.90;;;;;;5009779;28;20145;-68
2022/11/20 00:36:08;;;;;;;20.88;12.05;;;-1.50;99.90;;;;;;4992483;28;20256;-68
2022/11/20 00:38:34;;;;;;;23.23;13.20;;;-1.40;99.90;;;;;;4990196;28;20077;-69
2022/11/20 00:41:01;;;;;;;22.25;11.93;;;-1.40;99.90;;;;;;5006098;28;20073;-68
2022/11/20 00:43:27;;;;;;;22.52;11.45;;;-1.40;99.90;;;;;;5009348;28;20827;-68
2022/11/20 00:46:13;;;;;;;17.95;11.23;;;-1.40;99.90;;;;;;5008907;28;20056;-68
2022/11/20 00:48:39;;;;;;;19.77;11.52;;;-1.30;99.90;;;;;;5009428;28;20045;-69
2022/11/20 00:51:04;;;;;;;18.60;11.35;;;-1.20;99.90;;;;;;5005975;28;20038;-69
2022/11/20 00:53:30;;;;;;;20.88;12.15;;;-1.20;99.90;;;;;;5007887;28;20100;-69
2022/11/20 00:55:57;;;;;;;22.40;12.60;;;-1.30;99.90;;;;;;5008450;28;20050;-69
2022/11/20 00:58:23;;;;;;;23.77;14.13;;;-1.30;99.90;;;;;;4990761;28;20436;-69
2022/11/20 01:00:49;;;;;;;23.75;13.10;;;-1.20;99.90;;;;;;4997020;28;20081;-69
2022/11/20 01:03:16;;;;;;;24.05;13.10;;;-1.30;99.90;;;;;;5007296;28;20557;-69
2022/11/20 01:05:42;;;;;;;24.50;13.07;;;-1.30;99.90;;;;;;5009164;28;20702;-69
2022/11/20 01:08:08;;;;;;;24.77;13.90;;;-1.30;99.90;;;;;;5004717;28;20050;-69
2022/11/20 01:10:34;;;;;;;25.92;13.45;;;-1.40;99.90;;;;;;5008594;28;20050;-69
2022/11/20 01:15:44;;;;;;;24.40;13.57;;;-1.60;99.90;;;;;;5007423;28;20045;-69
2022/11/20 01:18:10;;;;;;;23.38;12.73;;;-1.60;99.90;;;;;;5009606;28;20061;-69
2022/11/20 01:20:36;;;;;;;23.60;12.73;;;-1.60;99.90;;;;;;5009080;28;20045;-69
2022/11/20 01:23:02;;;;;;;22.58;12.65;;;-1.70;99.90;;;;;;5001697;28;20052;-69
2022/11/20 01:25:28;;;;;;;24.13;13.15;;;-1.70;99.90;;;;;;4992341;28;20061;-69
2022/11/20 01:27:54;;;;;;;26.27;13.20;;;-1.80;99.90;;;;;;4992081;28;20065;-69
2022/11/20 01:30:20;;;;;;;23.05;12.85;;;-1.70;99.90;;;;;;5007472;28;20066;-69
2022/11/20 01:32:47;;;;;;;25.13;12.40;;;-1.70;99.90;;;;;;4988748;28;20054;-69
2022/11/20 01:35:12;;;;;;;22.95;11.77;;;-1.70;99.90;;;;;;4991284;28;20078;-68
2022/11/20 01:37:38;;;;;;;21.95;11.38;;;-1.80;99.90;;;;;;5008955;28;20579;-68
2022/11/20 01:40:05;;;;;;;20.80;11.40;;;-1.80;99.90;;;;;;5006027;28;20475;-69
2022/11/20 01:45:52;;;;;;;19.25;11.45;;;-1.80;99.90;;;;;;5007410;28;20095;-70
2022/11/20 01:48:19;;;;;;;23.17;11.75;;;-1.80;99.90;;;;;;5003018;28;20451;-70
2022/11/20 01:50:44;;;;;;;20.45;11.75;;;-1.80;99.90;;;;;;5019248;28;20070;-70
2022/11/20 01:53:12;;;;;;;20.70;11.02;;;-1.80;99.90;;;;;;5024864;28;20084;-70
2022/11/20 01:55:47;;;;;;;20.33;11.65;;;-1.90;99.90;;;;;;5006830;28;20707;-70
2022/11/20 01:58:13;;;;;;;21.63;11.50;;;-1.90;99.90;;;;;;5019243;28;20042;-70
2022/11/20 02:00:38;;;;;;;21.85;12.27;;;-1.90;99.90;;;;;;5007839;28;20049;-71
2022/11/20 02:03:12;;;;;;;18.40;10.55;;;-2.00;99.90;;;;;;4990680;28;20042;-71
2022/11/20 02:05:52;;;;;;;21.45;12.18;;;-2.00;99.90;;;;;;5012768;28;20409;-70
2022/11/20 02:08:19;;;;;;;20.90;11.63;;;-2.00;99.90;;;;;;5006959;28;20046;-69
2022/11/20 02:10:45;;;;;;;19.85;11.52;;;-2.00;99.90;;;;;;4991365;28;20045;-69
2022/11/20 02:15:55;;;;;;;20.73;11.65;;;-1.90;99.90;;;;;;5016359;28;20042;-68
2022/11/20 02:18:21;;;;;;;20.98;12.13;;;-1.90;99.90;;;;;;5007041;28;20042;-69
2022/11/20 02:20:49;;;;;;;21.35;11.10;;;-1.80;99.90;;;;;;5006919;28;20065;-68
2022/11/20 02:23:32;;;;;;;20.15;11.98;;;-1.80;99.90;;;;;;5021984;28;20038;-68
2022/11/20 02:25:58;;;;;;;22.13;11.82;;;-1.70;99.90;;;;;;5020300;28;20046;-69
2022/11/20 02:28:24;;;;;;;21.75;11.70;;;-1.70;99.90;;;;;;5006739;28;20076;-70
2022/11/20 02:30:50;;;;;;;22.20;11.65;;;-1.80;99.90;;;;;;4990704;28;20128;-69
2022/11/20 02:33:16;;;;;;;21.40;12.27;;;-1.80;99.90;;;;;;4993856;28;20108;-68
2022/11/20 02:35:43;;;;;;;20.40;11.98;;;-1.80;99.90;;;;;;5006707;28;20069;-69
2022/11/20 02:38:09;;;;;;;54.85;21.83;;;-1.70;99.90;;;;;;4990730;28;20096;-68
2022/11/20 02:40:35;;;;;;;23.17;11.80;;;-1.70;99.90;;;;;;5007202;28;20070;-69
2022/11/20 02:43:00;;;;;;;20.30;11.32;;;-1.70;99.90;;;;;;5005825;28;20085;-69
2022/11/20 02:45:26;;;;;;;22.33;12.23;;;-1.60;99.90;;;;;;5007695;28;20053;-69
2022/11/20 02:47:52;;;;;;;21.25;11.60;;;-1.60;99.90;;;;;;4989446;28;20057;-68
2022/11/20 02:50:18;;;;;;;21.10;11.95;;;-1.60;99.90;;;;;;5009461;28;20058;-69
2022/11/20 02:52:43;;;;;;;20.23;11.63;;;-1.70;99.90;;;;;;5010594;28;20674;-68
2022/11/20 02:55:10;;;;;;;21.52;11.48;;;-1.60;99.90;;;;;;4992995;28;20340;-69
2022/11/20 02:57:36;;;;;;;21.08;11.52;;;-1.60;99.90;;;;;;5026758;28;20053;-68
2022/11/20 03:00:04;;;;;;;20.20;11.93;;;-1.50;99.90;;;;;;5042910;28;20049;-69
2022/11/20 03:02:31;;;;;;;18.13;10.52;;;-1.50;99.90;;;;;;5009767;28;20053;-70
2022/11/20 03:04:56;;;;;;;19.98;11.88;;;-1.40;99.90;;;;;;5008271;28;20046;-65
2022/11/20 03:07:22;;;;;;;17.83;9.98;;;-1.40;99.90;;;;;;5010883;28;20046;-67
2022/11/20 03:09:49;;;;;;;19.50;11.13;;;-1.40;99.90;;;;;;5010330;28;20128;-65
2022/11/20 03:12:15;;;;;;;20.52;11.63;;;-1.40;99.90;;;;;;4991864;28;20563;-65
2022/11/20 03:14:41;;;;;;;18.17;10.65;;;-1.40;99.90;;;;;;4991688;28;20133;-65
2022/11/20 03:17:08;;;;;;;20.58;11.48;;;-1.40;99.90;;;;;;5010060;28;21187;-65
2022/11/20 03:19:34;;;;;;;22.38;12.60;;;-1.40;99.90;;;;;;4993497;28;20054;-65
2022/11/20 03:22:00;;;;;;;20.92;11.10;;;-1.40;99.90;;;;;;4992575;28;20049;-64
2022/11/20 03:24:26;;;;;;;20.35;11.75;;;-1.40;99.90;;;;;;4994044;28;20049;-64
2022/11/20 03:26:53;;;;;;;20.88;11.65;;;-1.50;99.90;;;;;;4990891;28;20054;-65
2022/11/20 03:29:18;;;;;;;21.23;11.38;;;-1.50;99.90;;;;;;5008090;28;20107;-65
2022/11/20 03:31:44;;;;;;;24.92;12.07;;;-1.60;99.90;;;;;;5009551;28;20543;-65
2022/11/20 03:34:10;;;;;;;20.27;10.93;;;-1.60;99.90;;;;;;4994563;28;20092;-65
2022/11/20 03:36:38;;;;;;;18.95;11.90;;;-1.70;99.90;;;;;;5009302;28;20053;-65
2022/11/20 03:39:04;;;;;;;20.92;11.40;;;-1.70;99.90;;;;;;5025265;28;20121;-66
2022/11/20 03:41:30;;;;;;;17.98;10.32;;;-1.70;99.90;;;;;;5009905;28;20137;-65
2022/11/20 03:44:01;;;;;;;19.90;11.73;;;-1.70;99.90;;;;;;5010397;28;20121;-66
2022/11/20 03:46:27;;;;;;;21.98;12.10;;;-1.60;99.90;;;;;;5006999;28;20041;-64
2022/11/20 03:48:53;;;;;;;20.20;11.35;;;-1.80;99.90;;;;;;5038604;28;20048;-65
2022/11/20 03:51:26;;;;;;;18.85;11.43;;;-1.80;99.90;;;;;;5009868;28;20057;-65
2022/11/20 03:53:54;;;;;;;20.88;11.65;;;-1.80;99.90;;;;;;5009810;28;20050;-65
2022/11/20 03:56:22;;;;;;;21.02;11.82;;;-1.90;99.90;;;;;;5009639;28;20112;-65
2022/11/20 03:58:48;;;;;;;21.30;11.38;;;-1.90;99.90;;;;;;5009378;28;20416;-64
2022/11/20 04:01:16;;;;;;;21.75;12.23;;;-1.90;99.90;;;;;;4977255;28;20053;-64
2022/11/20 04:03:42;;;;;;;21.40;12.98;;;-1.80;99.90;;;;;;4990848;28;20048;-65
2022/11/20 04:06:18;;;;;;;20.98;11.38;;;-1.80;99.90;;;;;;5006471;28;20054;-65
2022/11/20 04:08:44;;;;;;;20.60;11.70;;;-1.90;99.90;;;;;;5001475;28;20375;-65
2022/11/20 04:11:15;;;;;;;20.00;11.20;;;-1.70;99.90;;;;;;5009777;28;20045;-66
2022/11/20 04:13:41;;;;;;;20.70;11.10;;;-1.70;99.90;;;;;;5026398;28;20041;-65
2022/11/20 04:16:07;;;;;;;20.65;10.55;;;-1.70;99.90;;;;;;5005329;28;20056;-65
2022/11/20 04:18:33;;;;;;;22.63;12.00;;;-1.70;99.90;;;;;;5009659;28;20099;-66
2022/11/20 04:20:59;;;;;;;18.50;11.20;;;-1.80;99.90;;;;;;5026328;28;20042;-65
2022/11/20 04:23:25;;;;;;;20.50;10.85;;;-1.80;99.90;;;;;;5008255;28;20042;-65
2022/11/20 04:25:50;;;;;;;19.15;11.20;;;-1.70;99.90;;;;;;5007955;28;20041;-67
2022/11/20 04:28:16;;;;;;;18.85;11.13;;;-1.60;99.90;;;;;;5009003;28;20050;-66
2022/11/20 04:30:42;;;;;;;21.35;11.07;;;-1.60;99.90;;;;;;5010244;28;20688;-66
2022/11/20 04:33:08;;;;;;;17.92;10.50;;;-1.60;99.90;;;;;;4988989;28;20452;-66
2022/11/20 04:35:34;;;;;;;20.75;11.00;;;-1.50;99.90;;;;;;4991641;28;20081;-65
2022/11/20 04:38:00;;;;;;;20.15;11.25;;;-1.50;99.90;;;;;;5010283;28;20427;-66
2022/11/20 04:40:26;;;;;;;18.48;10.77;;;-1.50;99.90;;;;;;4985704;28;20046;-66
2022/11/20 04:42:51;;;;;;;19.30;11.13;;;-1.50;99.90;;;;;;5009183;28;20045;-66
2022/11/20 04:45:18;;;;;;;19.95;11.50;;;-1.50;99.90;;;;;;5005650;28;20050;-65
2022/11/20 04:47:45;;;;;;;19.98;11.23;;;-1.50;99.90;;;;;;5003260;28;20672;-65
2022/11/20 04:50:10;;;;;;;19.77;10.88;;;-1.50;99.90;;;;;;4990198;28;20495;-66
2022/11/20 04:52:36;;;;;;;19.48;10.95;;;-1.50;99.90;;;;;;5009334;28;20069;-65
2022/11/20 04:55:02;;;;;;;18.02;10.23;;;-1.50;99.90;;;;;;4993620;28;20180;-66
2022/11/20 04:57:28;;;;;;;17.67;9.93;;;-1.60;99.90;;;;;;5009564;28;20467;-66
2022/11/20 04:59:54;;;;;;;19.70;11.65;;;-1.60;99.90;;;;;;5008098;28;20042;-66
2022/11/20 05:02:20;;;;;;;18.08;10.70;;;-1.70;99.90;;;;;;5007187;28;20498;-65
2022/11/20 05:04:45;;;;;;;18.90;11.25;;;-1.60;99.90;;;;;;4991347;28;20037;-67
2022/11/20 05:07:13;;;;;;;21.60;11.25;;;-1.60;99.90;;;;;;4992845;28;20053;-66
2022/11/20 05:09:39;;;;;;;;;;;-1.50;99.90;;;;;;5009877;28;20394;-65
2022/11/20 05:12:07;;;;;;;20.02;10.45;;;-1.50;99.90;;;;;;4992273;28;19920;-65
2022/11/20 05:14:33;;;;;;;19.48;10.65;;;-1.50;99.90;;;;;;5005315;28;20056;-67
2022/11/20 05:16:59;;;;;;;20.50;11.23;;;-1.60;99.90;;;;;;5008662;28;20046;-65
2022/11/20 05:19:24;;;;;;;21.75;11.13;;;-1.60;99.90;;;;;;5019555;28;20046;-65
2022/11/20 05:21:51;;;;;;;18.90;10.60;;;-1.70;99.90;;;;;;4992080;28;20049;-66
2022/11/20 05:24:17;;;;;;;22.08;10.77;;;-1.80;99.90;;;;;;4991920;28;20618;-65
2022/11/20 05:26:43;;;;;;;17.17;9.93;;;-1.80;99.90;;;;;;5004997;28;20107;-65
2022/11/20 05:29:12;;;;;;;22.27;11.73;;;-1.80;99.90;;;;;;4991345;28;20056;-65
2022/11/20 05:31:39;;;;;;;20.90;11.75;;;-1.90;99.90;;;;;;5007073;28;20065;-65
2022/11/20 05:34:04;;;;;;;17.98;10.68;;;-2.00;99.90;;;;;;5003166;28;20382;-66
2022/11/20 05:36:30;;;;;;;18.30;10.77;;;-1.90;99.90;;;;;;5008657;28;20052;-65
2022/11/20 05:38:56;;;;;;;21.50;11.85;;;-1.80;99.90;;;;;;4992177;28;20041;-66
2022/11/20 05:41:22;;;;;;;23.90;12.13;;;-2.00;99.90;;;;;;4987568;28;20046;-65
2022/11/20 05:43:48;;;;;;;23.58;12.13;;;-2.10;99.90;;;;;;4990215;28;20811;-65
2022/11/20 05:46:14;;;;;;;22.35;11.25;;;-2.10;99.90;;;;;;5008299;28;20820;-64
2022/11/20 05:48:40;;;;;;;19.88;11.00;;;-2.10;99.90;;;;;;4990975;28;20038;-65
2022/11/20 05:51:07;;;;;;;17.25;10.38;;;-2.20;99.90;;;;;;5006200;28;20048;-65
2022/11/20 05:53:34;;;;;;;21.15;11.23;;;-2.20;99.90;;;;;;5008294;28;20472;-65
2022/11/20 05:56:01;;;;;;;21.50;11.13;;;-2.20;99.90;;;;;;4990505;28;20132;-65
2022/11/20 05:58:27;;;;;;;19.88;9.85;;;-2.20;99.90;;;;;;5008288;28;20797;-65
2022/11/20 06:00:54;;;;;;;20.70;11.75;;;-2.30;99.90;;;;;;4991699;28;20042;-66
2022/11/20 06:03:20;;;;;;;19.20;11.70;;;-2.10;99.90;;;;;;4990395;28;20459;-65
2022/11/20 06:05:46;;;;;;;18.08;11.02;;;-2.00;99.90;;;;;;4990984;28;20046;-65
2022/11/20 06:08:12;;;;;;;20.20;11.45;;;-1.90;99.90;;;;;;5003637;28;20050;-66
2022/11/20 06:10:37;;;;;;;17.50;10.55;;;-1.80;99.90;;;;;;5007726;28;20185;-67
2022/11/20 06:13:03;;;;;;;18.13;10.38;;;-1.70;99.90;;;;;;5007312;28;20049;-65
2022/11/20 06:15:29;;;;;;;19.48;12.00;;;-1.70;99.90;;;;;;5007737;28;20073;-66
2022/11/20 06:17:55;;;;;;;16.70;10.07;;;-1.60;99.90;;;;;;5024212;28;20062;-66
2022/11/20 06:20:22;;;;;;;19.23;11.15;;;-1.50;99.90;;;;;;5006057;28;20211;-66
2022/11/20 06:22:48;;;;;;;17.77;11.02;;;-1.50;99.90;;;;;;4992897;28;20133;-65
2022/11/20 06:25:14;;;;;;;17.33;10.65;;;-1.50;99.90;;;;;;5011438;28;20183;-67
2022/11/20 06:27:39;;;;;;;15.63;10.48;;;-1.50;99.90;;;;;;5009128;28;20047;-66
2022/11/20 06:30:06;;;;;;;18.08;10.00;;;-1.50;99.90;;;;;;5012345;28;20073;-65
2022/11/20 06:32:32;;;;;;;20.58;10.85;;;-1.60;99.90;;;;;;5009563;28;20050;-66
2022/11/20 06:34:59;;;;;;;18.00;10.13;;;-1.50;99.90;;;;;;5011307;28;20476;-66
2022/11/20 06:37:25;;;;;;;18.70;11.10;;;-1.50;99.90;;;;;;5024112;28;20452;-66
2022/11/20 06:39:51;;;;;;;18.42;10.57;;;-1.50;99.90;;;;;;5016215;28;20042;-66
2022/11/20 06:42:16;;;;;;;22.00;11.30;;;-1.40;99.90;;;;;;5012422;28;20045;-64
2022/11/20 06:44:42;;;;;;;18.17;10.57;;;-1.50;99.90;;;;;;5009375;28;20057;-65
2022/11/20 06:47:08;;;;;;;20.63;10.90;;;-1.40;99.90;;;;;;5012524;28;20648;-66
2022/11/20 06:49:34;;;;;;;14.50;9.93;;;-1.40;99.90;;;;;;5011046;28;20053;-66
2022/11/20 06:52:00;;;;;;;19.05;11.07;;;-1.30;99.90;;;;;;5004931;28;20122;-66
2022/11/20 06:54:25;;;;;;;15.52;9.60;;;-1.30;99.90;;;;;;5011786;28;20057;-65
2022/11/20 06:56:51;;;;;;;18.80;11.50;;;-1.30;99.90;;;;;;5009872;28;20046;-66
2022/11/20 06:59:17;;;;;;;18.60;10.73;;;-1.40;99.90;;;;;;5027007;28;20093;-67
2022/11/20 07:01:42;;;;;;;18.60;9.32;;;-1.40;99.90;;;;;;5018396;28;20058;-66
2022/11/20 07:04:08;;;;;;;17.65;10.50;;;-1.40;99.90;;;;;;5009816;28;20057;-65
2022/11/20 07:06:34;;;;;;;20.30;11.38;;;-1.30;99.90;;;;;;4993246;28;20060;-65
2022/11/20 07:09:00;;;;;;;18.17;10.52;;;-1.30;99.90;;;;;;5007510;28;20050;-65
2022/11/20 07:11:25;;;;;;;21.73;11.40;;;-1.30;99.90;;;;;;5008962;28;20054;-66
2022/11/20 07:13:51;;;;;;;17.58;10.18;;;-1.30;99.90;;;;;;5010990;28;20487;-67
2022/11/20 07:16:17;;;;;;;21.42;11.32;;;-1.30;99.90;;;;;;5009190;28;20054;-65
2022/11/20 07:18:43;;;;;;;19.58;11.23;;;-1.30;99.90;;;;;;5009371;28;20038;-65
2022/11/20 07:21:09;;;;;;;18.85;11.10;;;-1.30;99.90;;;;;;5010976;28;20050;-65
2022/11/20 07:23:35;;;;;;;21.50;12.52;;;-1.40;99.90;;;;;;4975474;28;20077;-66
2022/11/20 07:26:08;;;;;;;21.85;12.27;;;-1.30;99.90;;;;;;5026527;28;20058;-65
2022/11/20 07:28:34;;;;;;;19.55;11.27;;;-1.30;99.90;;;;;;5026808;28;20049;-66
2022/11/20 07:31:01;;;;;;;17.42;10.68;;;-1.40;99.90;;;;;;5010069;28;20057;-65
2022/11/20 07:33:26;;;;;;;16.88;10.23;;;-1.40;99.90;;;;;;5021043;28;20045;-66
2022/11/20 07:35:52;;;;;;;19.90;10.55;;;-1.50;99.90;;;;;;4992418;28;20041;-66
2022/11/20 07:38:18;;;;;;;17.10;10.80;;;-1.30;99.90;;;;;;4993509;28;20049;-66
2022/11/20 07:40:44;;;;;;;20.33;11.32;;;-1.40;99.90;;;;;;5007794;28;20361;-67
2022/11/20 07:43:10;;;;;;;19.08;11.15;;;-1.20;99.90;;;;;;5010085;28;20073;-66
2022/11/20 07:45:35;;;;;;;19.17;11.55;;;-1.30;99.90;;;;;;4992518;28;20128;-72
2022/11/20 07:48:01;;;;;;;17.52;10.52;;;-1.30;99.90;;;;;;4992717;28;20046;-72
2022/11/20 07:50:27;;;;;;;19.15;11.40;;;-1.40;99.90;;;;;;5008919;28;20046;-72
2022/11/20 07:52:59;;;;;;;17.58;11.30;;;-1.30;99.90;;;;;;5007996;28;20045;-72
2022/11/20 07:55:25;;;;;;;20.85;11.15;;;-1.20;99.90;;;;;;5009200;28;20099;-72
2022/11/20 07:57:55;;;;;;;18.40;10.70;;;-1.20;99.90;;;;;;5010397;28;20038;-72
2022/11/20 08:00:21;;;;;;;19.08;11.30;;;-1.10;99.90;;;;;;5009789;28;20121;-72
2022/11/20 08:02:47;;;;;;;18.67;11.68;;;-1.10;99.90;;;;;;4992024;28;20133;-72
2022/11/20 08:05:13;;;;;;;17.27;10.68;;;-1.20;99.90;;;;;;5007684;28;20558;-72
2022/11/20 08:07:42;;;;;;;19.58;11.75;;;-1.10;99.90;;;;;;4991172;28;20054;-72
2022/11/20 08:10:09;;;;;;;20.17;11.27;;;-1.20;99.90;;;;;;4992000;28;20049;-73
2022/11/20 08:15:20;;;;;;;17.25;10.07;;;-1.10;99.90;;;;;;5007065;28;20101;-72
2022/11/20 08:17:46;;;;;;;19.65;10.77;;;-1.10;99.90;;;;;;5008384;28;20049;-73
2022/11/20 08:20:12;;;;;;;20.33;10.70;;;-1.10;99.90;;;;;;5010035;28;20076;-72
2022/11/20 08:22:38;;;;;;;19.73;11.40;;;-1.10;99.90;;;;;;5024250;28;20086;-72
2022/11/20 08:25:04;;;;;;;20.08;11.02;;;-1.10;99.90;;;;;;5006090;28;20503;-72
2022/11/20 08:27:31;;;;;;;17.90;10.38;;;-1.00;99.90;;;;;;5024048;28;20116;-72
2022/11/20 08:29:57;;;;;;;17.75;10.60;;;-1.10;99.90;;;;;;4992610;28;20064;-73
2022/11/20 08:32:23;;;;;;;20.15;11.88;;;-1.00;99.90;;;;;;5010112;28;20049;-73
2022/11/20 08:34:49;;;;;;;20.80;11.05;;;-0.90;99.90;;;;;;5008135;28;20046;-73
2022/11/20 08:37:14;;;;;;;19.63;10.88;;;-0.90;99.90;;;;;;5036064;28;20120;-73
2022/11/20 08:39:40;;;;;;;17.23;10.73;;;-0.90;99.90;;;;;;4977411;28;20524;-73
2022/11/20 08:42:09;;;;;;;18.85;11.27;;;-1.00;99.90;;;;;;5009568;28;20046;-73
2022/11/20 08:44:35;;;;;;;20.50;12.23;;;-1.00;99.90;;;;;;4986430;28;20050;-72
2022/11/20 08:47:00;;;;;;;19.83;11.32;;;-0.90;99.90;;;;;;5008631;28;20080;-73
2022/11/20 08:49:26;;;;;;;19.27;10.13;;;-0.80;99.90;;;;;;5005098;28;20679;-73
2022/11/20 08:51:54;;;;;;;19.88;10.98;;;-0.80;99.90;;;;;;5010167;28;20052;-72
2022/11/20 08:54:21;;;;;;;17.40;9.95;;;-0.80;99.90;;;;;;4990182;28;20053;-75
2022/11/20 08:56:48;;;;;;;18.77;10.52;;;-0.80;99.90;;;;;;5009559;28;20052;-74
2022/11/20 08:59:13;;;;;;;18.02;10.18;;;-0.80;99.90;;;;;;4992488;28;20494;-74
2022/11/20 09:01:39;;;;;;;16.17;10.35;;;-0.80;99.90;;;;;;5005878;28;20133;-73
2022/11/20 09:04:05;;;;;;;16.27;9.80;;;-0.80;99.90;;;;;;5010113;28;20049;-73
2022/11/20 09:06:31;;;;;;;19.15;10.48;;;-0.80;99.90;;;;;;5008196;28;20472;-73
2022/11/20 09:08:56;;;;;;;16.92;10.57;;;-0.70;99.90;;;;;;5009037;28;20042;-74
2022/11/20 09:11:22;;;;;;;18.83;10.65;;;-0.80;99.90;;;;;;4993099;28;20128;-73
2022/11/20 09:13:48;;;;;;;31.23;21.40;;;-0.80;99.90;;;;;;5005839;28;20061;-73
2022/11/20 09:16:14;;;;;;;20.45;12.40;;;-0.70;99.90;;;;;;5009044;28;20049;-73
2022/11/20 09:18:40;;;;;;;18.38;10.30;;;-0.70;99.90;;;;;;4988700;28;20042;-74
2022/11/20 09:21:10;;;;;;;22.27;11.98;;;-0.60;99.90;;;;;;4992257;28;20349;-73
2022/11/20 09:23:36;;;;;;;18.20;12.95;;;-0.60;99.90;;;;;;5009086;28;20099;-73
2022/11/20 09:26:12;;;;;;;22.02;15.85;;;-0.50;99.90;;;;;;5009183;28;20042;-74
2022/11/20 09:28:38;;;;;;;19.20;11.52;;;-0.40;99.90;;;;;;5005936;28;20057;-73
2022/11/20 09:31:07;;;;;;;18.02;10.65;;;-0.40;99.90;;;;;;5017354;28;20050;-72
2022/11/20 09:33:33;;;;;;;17.35;10.68;;;-0.40;99.90;;;;;;5007998;28;20056;-72
2022/11/20 09:35:59;;;;;;;18.98;10.32;;;-0.30;99.90;;;;;;5009672;28;20038;-73
2022/11/20 09:38:25;;;;;;;16.38;9.90;;;-0.30;99.90;;;;;;5006322;28;20046;-72
2022/11/20 09:40:56;;;;;;;18.50;11.13;;;-0.20;99.90;;;;;;5005752;28;20503;-65
2022/11/20 09:43:24;;;;;;;15.35;9.70;;;-0.20;99.90;;;;;;5008671;28;20049;-65
2022/11/20 09:46:02;;;;;;;16.63;10.43;;;-0.10;99.90;;;;;;5001547;28;20152;-66
2022/11/20 09:48:49;;;;;;;15.93;9.60;;;0.00;99.90;;;;;;5006353;28;20052;-66
2022/11/20 09:51:43;;;;;;;17.38;10.23;;;0.10;99.90;;;;;;5003887;28;20540;-66
2022/11/20 09:54:12;;;;;;;14.85;9.18;;;0.20;99.90;;;;;;5000899;28;20046;-66
2022/11/20 09:56:43;;;;;;;14.38;8.55;;;0.20;99.90;;;;;;5005057;28;20064;-67
2022/11/20 09:59:17;;;;;;;15.43;8.90;;;0.20;99.90;;;;;;5006872;28;20061;-67
2022/11/20 10:01:44;;;;;;;16.80;9.60;;;0.30;99.90;;;;;;5002935;28;20057;-66
2022/11/20 10:04:14;;;;;;;17.23;9.45;;;0.30;99.90;;;;;;5022571;28;20066;-66
2022/11/20 10:06:55;;;;;;;15.02;8.95;;;0.30;99.90;;;;;;5007612;28;20038;-67
2022/11/20 10:09:32;;;;;;;15.75;9.10;;;0.30;99.90;;;;;;5010092;28;20045;-65
2022/11/20 10:12:14;;;;;;;13.43;7.90;;;0.40;99.90;;;;;;4993016;28;20057;-65
2022/11/20 10:14:56;;;;;;;15.45;8.45;;;0.30;99.90;;;;;;4989790;28;20057;-68
2022/11/20 10:17:42;;;;;;;13.90;9.13;;;0.40;99.90;;;;;;5007806;28;20112;-68
2022/11/20 10:20:18;;;;;;;14.05;8.63;;;0.50;99.90;;;;;;4990251;28;20590;-65
2022/11/20 10:22:59;;;;;;;15.00;8.82;;;0.70;99.90;;;;;;4990382;28;20169;-66
2022/11/20 10:25:40;;;;;;;14.80;8.45;;;0.80;99.90;;;;;;5007278;28;20041;-68
2022/11/20 10:28:56;;;;;;;14.05;8.43;;;0.90;99.90;;;;;;5005721;28;20046;-68
2022/11/20 10:31:42;;;;;;;15.35;8.75;;;0.90;99.90;;;;;;5006388;28;20058;-69
2022/11/20 10:34:33;;;;;;;14.68;7.80;;;1.10;99.90;;;;;;4993164;28;20046;-66
2022/11/20 10:37:09;;;;;;;13.07;7.30;;;1.00;99.90;;;;;;5007400;28;20064;-67
2022/11/20 10:39:41;;;;;;;13.73;7.35;;;1.00;99.90;;;;;;5007727;28;20120;-68
2022/11/20 10:42:16;;;;;;;15.73;8.75;;;1.00;99.80;;;;;;5007151;28;20061;-71
2022/11/20 10:45:01;;;;;;;12.50;7.60;;;1.00;99.50;;;;;;4992614;28;20053;-71
2022/11/20 10:47:27;;;;;;;13.35;8.00;;;1.10;99.90;;;;;;4992851;28;20161;-71
2022/11/20 10:49:54;;;;;;;13.63;8.50;;;1.40;99.50;;;;;;5024991;28;20566;-71
2022/11/20 10:52:23;;;;;;;13.43;8.25;;;1.40;99.90;;;;;;5008133;28;20078;-72
2022/11/20 10:55:25;;;;;;;15.75;8.05;;;1.50;99.60;;;;;;5007310;28;20131;-73
2022/11/20 10:57:56;;;;;;;12.60;8.23;;;1.40;99.40;;;;;;5005842;28;20049;-72
2022/11/20 11:00:22;;;;;;;14.30;9.20;;;1.80;99.80;;;;;;5008323;28;20104;-72
2022/11/20 11:02:49;;;;;;;13.75;8.88;;;2.20;98.80;;;;;;4993199;28;20054;-73
2022/11/20 11:05:34;;;;;;;14.32;9.13;;;2.20;98.20;;;;;;4988101;28;20057;-71
2022/11/20 11:08:00;;;;;;;17.08;8.55;;;2.00;98.40;;;;;;5006792;28;20668;-72
2022/11/20 11:11:02;;;;;;;15.27;9.15;;;1.90;98.90;;;;;;4991905;28;20041;-72
2022/11/20 11:13:29;;;;;;;14.35;8.38;;;2.00;98.40;;;;;;4986033;28;20515;-72
2022/11/20 11:15:55;;;;;;;12.60;7.80;;;2.00;99.20;;;;;;5004218;28;20049;-72
2022/11/20 11:18:29;;;;;;;15.57;9.27;;;1.60;99.40;;;;;;5022393;28;20141;-72
2022/11/20 11:20:56;;;;;;;15.35;9.40;;;2.10;99.60;;;;;;5001414;28;20141;-72
2022/11/20 11:23:41;;;;;;;14.18;9.18;;;2.80;98.60;;;;;;4991135;28;20109;-70
2022/11/20 11:26:21;;;;;;;16.73;9.52;;;3.90;98.00;;;;;;5011782;28;20084;-72
2022/11/20 11:29:17;;;;;;;13.40;9.27;;;4.50;98.30;;;;;;5018192;28;20050;-75
2022/11/20 11:31:44;;;;;;;13.88;8.70;;;5.00;95.20;;;;;;4999489;28;20070;-75
2022/11/20 11:34:14;;;;;;;14.30;9.15;;;4.80;93.70;;;;;;5008145;28;20054;-74
2022/11/20 11:36:40;;;;;;;13.90;9.73;;;4.00;95.40;;;;;;5022839;28;20122;-79
2022/11/20 11:39:14;;;;;;;15.80;9.63;;;3.90;95.80;;;;;;5017906;28;20426;-80
2022/11/20 11:41:41;;;;;;;15.02;9.45;;;4.10;97.20;;;;;;5004726;28;20365;-71
2022/11/20 11:47:18;;;;;;;14.18;7.88;;;3.80;94.90;;;;;;5007707;28;20072;-67
2022/11/20 11:49:44;;;;;;;12.98;8.82;;;3.20;95.40;;;;;;5005586;28;20707;-66
2022/11/20 11:52:19;;;;;;;11.75;7.80;;;2.80;96.20;;;;;;5007033;28;20065;-66
2022/11/20 11:54:56;;;;;;;13.80;8.73;;;3.50;96.20;;;;;;4989777;28;20062;-66
2022/11/20 11:57:28;;;;;;;12.77;7.97;;;3.80;95.40;;;;;;5017926;28;20080;-66
2022/11/20 12:00:08;;;;;;;13.52;8.55;;;3.80;94.50;;;;;;5037572;28;20079;-67
2022/11/20 12:02:37;;;;;;;15.20;8.68;;;3.60;94.40;;;;;;4990237;28;20656;-66
2022/11/20 12:05:05;;;;;;;;;;;3.00;95.80;;;;;;5003770;28;20053;-66
2022/11/20 12:07:45;;;;;;;13.30;8.18;;;2.70;96.70;;;;;;5006120;28;19917;-66
2022/11/20 12:10:22;;;;;;;15.40;9.05;;;2.80;97.20;;;;;;4999323;28;20038;-66
2022/11/20 12:12:51;;;;;;;12.52;7.60;;;2.70;97.50;;;;;;5004355;28;20050;-66
2022/11/20 12:15:26;;;;;;;14.43;9.05;;;2.70;97.80;;;;;;5036438;28;20038;-66
2022/11/20 12:17:52;;;;;;;13.43;8.50;;;2.50;98.00;;;;;;5006897;28;20095;-65
2022/11/20 12:20:18;;;;;;;13.23;8.52;;;2.40;98.50;;;;;;5006980;28;20050;-65
2022/11/20 12:23:09;;;;;;;15.75;9.07;;;2.40;98.70;;;;;;4972475;28;20052;-65
2022/11/20 12:25:36;;;;;;;14.48;8.73;;;2.40;98.40;;;;;;5006407;28;20056;-66
2022/11/20 12:28:19;;;;;;;15.32;9.00;;;2.50;98.60;;;;;;5005487;28;20136;-66
2022/11/20 12:31:14;;;;;;;13.98;8.30;;;2.70;98.30;;;;;;5033525;28;20537;-71
2022/11/20 12:34:20;;;;;;;13.60;8.57;;;3.10;97.40;;;;;;5004801;28;20104;-70
2022/11/20 12:36:55;;;;;;;12.82;8.10;;;2.90;96.80;;;;;;4988748;28;20108;-72
2022/11/20 12:39:32;;;;;;;15.95;7.45;;;2.60;97.70;;;;;;5007834;28;20694;-71
2022/11/20 12:45:29;;;;;;;11.73;7.40;;;2.20;98.50;;;;;;5006689;28;20136;-70
2022/11/20 12:48:16;;;;;;;11.30;6.93;;;2.10;98.10;;;;;;5005425;28;20088;-71
2022/11/20 12:51:15;;;;;;;10.35;5.40;;;2.10;98.40;;;;;;5005857;28;20053;-71
2022/11/20 12:53:44;;;;;;;12.60;7.78;;;1.90;98.10;;;;;;5028531;28;20100;-71
2022/11/20 12:56:21;;;;;;;12.02;7.53;;;1.80;98.30;;;;;;5006383;28;20042;-72
2022/11/20 12:59:21;;;;;;;12.13;6.70;;;1.80;98.20;;;;;;5022599;28;20766;-72
2022/11/20 13:02:09;;;;;;;13.32;8.35;;;1.90;98.60;;;;;;4999877;28;20041;-71